Strona główna
METAR-TAF:

METAR-TAF

Lotnisko :

Port lotniczy Abu Simbel

Abu Simbel, Egipt

Szerokość geograficzna: 22-22-33N, Długość geograficzna: 31-36-42E, wysokość: 188 m

Aktualna obserwacja pogody

Raport powstał 35 minut temu, godzina 03:00 UTC
Wiatr 4 kt od północny wschód
Temperatura 22°C
Wilgotność 41%
Ciśnienie 1011 hPa
Widzialność 10 km lub więcej
Brak chmur poniżej 1500 m i brak chmur cumulonimbus

METAR: HEBL 040300Z 05004KT CAVOK 22/08 Q1011 NOSIG

czas: 05:35 (03:35 UTC)

Prognoza

Raport powstał 4 godziny i 35 minut temu, godzina 23:00 UTC
Prognoza ważna od 04 godzina 00 UTC do 05 godzina 06 UTC
Wiatr 10 kt od północ
Widzialność 10 km lub więcej
Brak chmur poniżej 1500 m i brak chmur cumulonimbus

TAF: HEBL 032300Z 0400/0506 36010KT CAVOK

Obserwacja i prognoza pogody dla ponad 4000 lotnisk (raport METAR i TAF).

Dostępne stacje oznaczono żółtymi i czerwonymi punktami na mapie.

Najedź kursorem aby zobaczyć nazwę stacji.

Kliknij aby zobaczyć obserwacje i prognozy pogody.

Aby zmienić mapę: kliknij na zielony przycisk z czarnym krzyżykiem, aby powiększyć; na zielony przycisk z myślnikiem, aby pomniejszyć; na zielone strzałki, aby przejść do map sąsiednich.


METAR-TAF: